Time;durP1;ratioP1;P1;durP2;ratioP2;P2;SDS_P1;SDS_P2;PMS_P1;PMS_P2;Temp;Humidity;BMP_temperature;BMP_pressure;BME280_temperature;BME280_humidity;BME280_pressure;Samples;Min_cycle;Max_cycle;Signal;HPM_P1;HPM_P2
2022/03/28 00:00:17;;;;;;;1.63;1.57;;;7.90;98.00;;;;;;6245818;22;20413;-68
2022/03/28 00:02:44;;;;;;;1.50;1.33;;;7.90;98.00;;;;;;6245113;22;20419;-70
2022/03/28 00:05:13;;;;;;;3.30;1.90;;;7.90;98.00;;;;;;6243999;23;20768;-69
2022/03/28 00:07:42;;;;;;;1.77;1.63;;;7.80;98.00;;;;;;6245216;22;20423;-68
2022/03/28 00:10:09;;;;;;;1.80;1.73;;;7.90;98.00;;;;;;6245222;22;20431;-69
2022/03/28 00:12:38;;;;;;;1.97;1.50;;;7.70;98.00;;;;;;6244893;22;20469;-69
2022/03/28 00:15:06;;;;;;;4.97;1.80;;;7.60;98.00;;;;;;6245076;22;20476;-69
2022/03/28 00:17:36;;;;;;;2.40;1.30;;;7.40;98.00;;;;;;6244997;22;20493;-69
2022/03/28 00:20:04;;;;;;;2.50;1.67;;;7.30;98.00;;;;;;6244728;22;20412;-69
2022/03/28 00:22:31;;;;;;;3.33;2.07;;;7.40;98.00;;;;;;6244974;22;20470;-69
2022/03/28 00:24:59;;;;;;;1.47;1.33;;;7.40;98.00;;;;;;6244629;22;20928;-68
2022/03/28 00:27:26;;;;;;;1.80;1.47;;;7.40;98.00;;;;;;6244404;22;20401;-68
2022/03/28 00:29:53;;;;;;;8.03;2.90;;;7.30;98.00;;;;;;6244536;22;20400;-68
2022/03/28 00:32:20;;;;;;;3.83;2.00;;;7.30;98.00;;;;;;6244419;22;20414;-70
2022/03/28 00:34:47;;;;;;;3.53;2.33;;;7.30;98.00;;;;;;6244890;22;20946;-68
2022/03/28 00:37:14;;;;;;;1.80;1.20;;;7.30;98.00;;;;;;6244803;22;20419;-68
2022/03/28 00:39:41;;;;;;;2.13;1.90;;;7.40;98.00;;;;;;6244602;22;20453;-69
2022/03/28 00:42:09;;;;;;;5.97;1.87;;;7.40;98.00;;;;;;6244704;22;20850;-69
2022/03/28 00:44:37;;;;;;;3.43;1.60;;;7.50;98.00;;;;;;6244745;22;20416;-68
2022/03/28 00:47:04;;;;;;;1.60;1.40;;;7.60;98.00;;;;;;6244613;22;20420;-70
2022/03/28 00:49:31;;;;;;;1.97;1.60;;;7.50;98.00;;;;;;6185592;22;20473;-70
2022/03/28 00:51:59;;;;;;;1.90;1.80;;;7.30;98.00;;;;;;6120802;23;20989;-69
2022/03/28 00:54:26;;;;;;;3.20;1.67;;;7.30;98.00;;;;;;6120280;23;20464;-68
2022/03/28 00:56:53;;;;;;;1.80;1.50;;;7.20;98.00;;;;;;6121055;23;20517;-69
2022/03/28 00:59:21;;;;;;;1.80;1.40;;;7.20;98.00;;;;;;6120316;23;20420;-68
2022/03/28 01:01:48;;;;;;;2.97;2.30;;;7.20;98.00;;;;;;6120563;23;20463;-69
2022/03/28 01:04:15;;;;;;;1.60;1.53;;;7.00;98.00;;;;;;6120785;23;20404;-69
2022/03/28 01:06:44;;;;;;;1.73;1.40;;;7.10;98.00;;;;;;6120447;23;20409;-69
2022/03/28 01:09:11;;;;;;;2.80;1.53;;;7.10;98.00;;;;;;6120446;23;20460;-69
2022/03/28 01:11:41;;;;;;;2.10;1.73;;;7.00;98.00;;;;;;6120281;23;20412;-70
2022/03/28 01:14:08;;;;;;;2.67;1.93;;;6.70;98.00;;;;;;6119943;23;20455;-69
2022/03/28 01:18:05;;;;;;;1.60;1.30;;;6.70;98.00;;;;;;6120584;23;20423;-68
2022/03/28 01:19:24;;;;;;;2.90;2.70;;;6.60;98.00;;;;;;6120207;23;20424;-68
2022/03/28 01:21:53;;;;;;;1.83;1.73;;;6.60;98.00;;;;;;6120583;23;20903;-68
2022/03/28 01:24:20;;;;;;;1.40;1.03;;;6.60;98.00;;;;;;6120582;23;20424;-69
2022/03/28 01:26:47;;;;;;;3.87;1.90;;;6.60;98.00;;;;;;6120515;23;20463;-69
2022/03/28 01:29:15;;;;;;;1.83;1.60;;;6.40;98.00;;;;;;6120389;23;20419;-69
2022/03/28 01:31:42;;;;;;;1.40;1.30;;;6.40;98.00;;;;;;6120125;23;20416;-68
2022/03/28 01:34:17;;;;;;;1.30;1.30;;;6.50;98.00;;;;;;6120449;23;20444;-68
2022/03/28 01:36:45;;;;;;;22.33;2.30;;;6.50;98.00;;;;;;6120204;23;20404;-69
2022/03/28 01:39:14;;;;;;;1.40;1.40;;;6.50;98.00;;;;;;6121017;23;20401;-69
2022/03/28 01:41:41;;;;;;;4.50;1.83;;;6.50;98.00;;;;;;6120045;23;20445;-68
2022/03/28 01:44:08;;;;;;;1.50;1.43;;;6.50;98.00;;;;;;6120119;23;20424;-68
2022/03/28 01:46:41;;;;;;;1.90;1.70;;;6.40;98.00;;;;;;6119043;23;20421;-68
2022/03/28 01:49:09;;;;;;;1.30;1.20;;;6.60;98.00;;;;;;6120087;23;20524;-69
2022/03/28 01:51:36;;;;;;;1.33;1.00;;;6.70;98.00;;;;;;6094426;23;20420;-68
2022/03/28 01:54:03;;;;;;;2.87;1.63;;;6.50;98.00;;;;;;6119922;23;20464;-69
2022/03/28 01:56:34;;;;;;;4.83;2.63;;;6.50;98.00;;;;;;6119886;23;20491;-69
2022/03/28 01:59:01;;;;;;;2.33;1.93;;;6.30;98.00;;;;;;6120222;23;20443;-69
2022/03/28 02:01:28;;;;;;;1.30;1.20;;;6.30;98.00;;;;;;6120360;23;20458;-69
2022/03/28 02:03:55;;;;;;;1.63;1.60;;;6.50;98.00;;;;;;6120030;23;20474;-68
2022/03/28 02:06:22;;;;;;;1.20;1.00;;;6.40;98.00;;;;;;6120930;23;20419;-69
2022/03/28 02:08:49;;;;;;;3.67;2.20;;;6.50;98.00;;;;;;6096250;23;20936;-68
2022/03/28 02:11:17;;;;;;;1.93;1.47;;;6.60;98.00;;;;;;6121541;23;20435;-69
2022/03/28 02:13:45;;;;;;;1.20;1.00;;;6.60;98.00;;;;;;6121338;23;20431;-69
2022/03/28 02:16:13;;;;;;;2.63;1.83;;;6.40;98.00;;;;;;6121822;23;20427;-69
2022/03/28 02:18:41;;;;;;;3.47;3.13;;;6.40;98.00;;;;;;6096693;23;20496;-69
2022/03/28 02:21:08;;;;;;;2.37;2.17;;;6.30;98.00;;;;;;6121536;23;20457;-68
2022/03/28 02:23:35;;;;;;;2.50;1.67;;;6.30;98.00;;;;;;6122124;23;20455;-69
2022/03/28 02:26:03;;;;;;;4.33;2.40;;;6.30;98.00;;;;;;6121583;23;20419;-68
2022/03/28 02:28:31;;;;;;;1.70;1.47;;;6.10;98.00;;;;;;6121640;23;20427;-69
2022/03/28 02:30:59;;;;;;;2.07;1.57;;;6.00;98.00;;;;;;6121572;23;20458;-68
2022/03/28 02:33:27;;;;;;;1.97;1.83;;;6.00;98.00;;;;;;6121628;23;20474;-69
2022/03/28 02:35:54;;;;;;;1.90;1.77;;;5.90;98.00;;;;;;6095125;23;20431;-69
2022/03/28 02:38:23;;;;;;;2.77;1.67;;;5.90;98.00;;;;;;6095554;23;20908;-68
2022/03/28 02:40:50;;;;;;;1.53;1.47;;;5.90;98.00;;;;;;6121479;23;20802;-68
2022/03/28 02:43:22;;;;;;;1.30;1.30;;;5.90;98.00;;;;;;6121586;23;20414;-68
2022/03/28 02:45:48;;;;;;;1.20;1.20;;;5.90;98.00;;;;;;6121506;23;20436;-68
2022/03/28 02:48:17;;;;;;;1.37;1.13;;;5.70;98.00;;;;;;6121484;23;20418;-69
2022/03/28 02:50:45;;;;;;;10.33;3.13;;;5.70;98.00;;;;;;6121291;23;20515;-68
2022/03/28 02:53:12;;;;;;;2.90;1.63;;;5.70;98.00;;;;;;6121203;23;20440;-69
2022/03/28 02:55:40;;;;;;;1.80;1.40;;;5.60;98.00;;;;;;6121190;23;20866;-68
2022/03/28 02:58:07;;;;;;;2.10;1.83;;;5.60;98.00;;;;;;6121792;23;20470;-68
2022/03/28 03:00:34;;;;;;;3.20;1.77;;;5.60;98.00;;;;;;6096159;23;20407;-68
2022/03/28 03:03:02;;;;;;;1.20;1.10;;;5.60;98.00;;;;;;6121619;23;20460;-69
2022/03/28 03:05:30;;;;;;;4.90;1.90;;;5.70;98.00;;;;;;6121537;23;20430;-68
2022/03/28 03:07:57;;;;;;;3.00;1.90;;;5.70;98.00;;;;;;6071430;23;20960;-68
2022/03/28 03:10:27;;;;;;;2.13;1.50;;;5.70;98.00;;;;;;6121610;23;20419;-69
2022/03/28 03:12:54;;;;;;;1.50;1.30;;;5.60;98.00;;;;;;6121501;23;20462;-69
2022/03/28 03:15:21;;;;;;;1.40;1.20;;;5.60;98.00;;;;;;6121772;23;20405;-68
2022/03/28 03:17:49;;;;;;;1.40;1.30;;;5.70;98.00;;;;;;6120878;23;20442;-69
2022/03/28 03:20:16;;;;;;;1.93;1.40;;;5.70;98.00;;;;;;6121472;23;20499;-68
2022/03/28 03:22:45;;;;;;;1.40;1.23;;;5.50;98.00;;;;;;6121530;23;20468;-68
2022/03/28 03:25:12;;;;;;;6.30;2.00;;;5.40;98.00;;;;;;6095677;23;20476;-67
2022/03/28 03:27:40;;;;;;;1.67;1.50;;;5.40;98.00;;;;;;6120798;23;20428;-68
2022/03/28 03:30:08;;;;;;;2.27;1.90;;;5.50;98.00;;;;;;6121378;23;20446;-68
2022/03/28 03:32:35;;;;;;;2.07;1.70;;;5.70;98.00;;;;;;6121301;23;20488;-68
2022/03/28 03:35:03;;;;;;;2.03;1.77;;;5.60;98.00;;;;;;6121065;23;20915;-68
2022/03/28 03:37:30;;;;;;;1.40;1.30;;;5.40;98.00;;;;;;6120820;23;20451;-69
2022/03/28 03:39:59;;;;;;;3.10;1.57;;;5.50;98.00;;;;;;6120791;23;20448;-69
2022/03/28 03:42:26;;;;;;;1.83;1.47;;;5.60;98.00;;;;;;6121215;23;20406;-68
2022/03/28 03:44:53;;;;;;;2.27;2.10;;;5.50;98.00;;;;;;6120806;23;20444;-69
2022/03/28 03:47:20;;;;;;;1.90;1.40;;;5.30;98.00;;;;;;6120798;23;20404;-68
2022/03/28 03:49:48;;;;;;;2.07;1.83;;;5.20;98.00;;;;;;6120932;23;20427;-68
2022/03/28 03:52:15;;;;;;;1.60;1.50;;;5.20;98.00;;;;;;6121161;23;20487;-68
2022/03/28 03:54:42;;;;;;;1.87;1.20;;;5.20;98.00;;;;;;6120756;23;20443;-69
2022/03/28 03:57:10;;;;;;;2.80;2.40;;;5.20;98.00;;;;;;6121066;23;20720;-69
2022/03/28 03:59:37;;;;;;;2.17;1.80;;;5.10;98.00;;;;;;6121069;23;20439;-69
2022/03/28 04:02:05;;;;;;;2.13;1.97;;;4.90;98.00;;;;;;6120663;23;20467;-68
2022/03/28 04:04:36;;;;;;;3.43;2.03;;;4.80;98.00;;;;;;6121032;23;20399;-69
2022/03/28 04:07:03;;;;;;;1.30;1.17;;;4.90;98.00;;;;;;6121440;23;20763;-68
2022/03/28 04:09:31;;;;;;;2.00;1.60;;;4.80;98.00;;;;;;6120997;23;20480;-68
2022/03/28 04:11:57;;;;;;;1.20;1.10;;;4.90;98.00;;;;;;6121568;23;20778;-68
2022/03/28 04:14:26;;;;;;;3.30;1.93;;;5.00;98.00;;;;;;6121404;23;20448;-68
2022/03/28 04:16:54;;;;;;;2.20;1.50;;;5.20;98.00;;;;;;6120897;23;20426;-68
2022/03/28 04:19:21;;;;;;;1.40;1.40;;;5.20;98.00;;;;;;6121099;23;20401;-68
2022/03/28 04:21:48;;;;;;;1.90;1.40;;;5.20;98.00;;;;;;6120164;23;20451;-68
2022/03/28 04:24:15;;;;;;;1.20;0.90;;;5.20;98.00;;;;;;6119910;23;20402;-67
2022/03/28 04:26:42;;;;;;;1.90;1.60;;;5.10;98.00;;;;;;6120208;23;20487;-69
2022/03/28 04:29:09;;;;;;;1.40;1.20;;;5.00;98.00;;;;;;6120713;23;20424;-68
2022/03/28 04:31:40;;;;;;;1.73;1.63;;;4.80;98.00;;;;;;6120986;23;20442;-68
2022/03/28 04:34:07;;;;;;;1.97;1.70;;;4.60;98.00;;;;;;6119534;23;21026;-69
2022/03/28 04:36:34;;;;;;;3.47;2.67;;;4.80;98.00;;;;;;6120644;23;20428;-68
2022/03/28 04:39:01;;;;;;;1.80;1.63;;;4.70;98.00;;;;;;6120953;23;20461;-68
2022/03/28 04:41:28;;;;;;;1.33;1.20;;;4.70;98.00;;;;;;6120589;23;20459;-69
2022/03/28 04:43:55;;;;;;;1.70;1.60;;;4.80;98.00;;;;;;6121067;23;20481;-68
2022/03/28 04:46:22;;;;;;;3.47;2.00;;;4.80;98.00;;;;;;6120902;23;20453;-68
2022/03/28 04:48:51;;;;;;;2.17;1.87;;;4.60;98.00;;;;;;6121030;23;20441;-69
2022/03/28 04:51:18;;;;;;;1.60;1.60;;;4.60;98.00;;;;;;6066401;23;20405;-70
2022/03/28 04:53:45;;;;;;;2.07;1.57;;;4.50;98.00;;;;;;6091825;23;20503;-69
2022/03/28 04:56:12;;;;;;;2.40;1.73;;;4.50;98.00;;;;;;6064759;23;20475;-68
2022/03/28 04:58:42;;;;;;;7.07;1.93;;;4.40;98.00;;;;;;6091854;23;20422;-69
2022/03/28 05:01:09;;;;;;;1.70;1.63;;;4.50;98.00;;;;;;6091783;23;20403;-68
2022/03/28 05:03:37;;;;;;;1.30;1.20;;;4.40;98.00;;;;;;6091652;23;20860;-69
2022/03/28 05:06:05;;;;;;;4.23;1.60;;;4.50;98.00;;;;;;6091223;23;20922;-69
2022/03/28 05:08:32;;;;;;;2.43;1.67;;;4.60;98.00;;;;;;6091953;23;20691;-68
2022/03/28 05:10:59;;;;;;;1.90;1.67;;;4.50;98.00;;;;;;6091369;23;20440;-68
2022/03/28 05:13:27;;;;;;;2.70;1.67;;;4.50;98.00;;;;;;6091161;23;20482;-69
2022/03/28 05:15:56;;;;;;;1.20;1.20;;;4.40;98.00;;;;;;6091407;23;20522;-69
2022/03/28 05:18:23;;;;;;;1.97;1.40;;;4.20;98.00;;;;;;6091349;23;20402;-69
2022/03/28 05:20:51;;;;;;;1.60;1.50;;;4.20;98.00;;;;;;6091535;23;20421;-68
2022/03/28 05:23:20;;;;;;;1.20;1.20;;;4.20;98.00;;;;;;6065263;23;20425;-68
2022/03/28 05:25:48;;;;;;;1.53;1.47;;;4.30;98.00;;;;;;6091564;23;20400;-68
2022/03/28 05:28:15;;;;;;;1.90;1.43;;;4.40;98.00;;;;;;6091073;23;20432;-68
2022/03/28 05:30:42;;;;;;;1.40;1.33;;;4.40;98.00;;;;;;6091198;23;20421;-68
2022/03/28 05:33:08;;;;;;;1.60;1.37;;;4.40;98.00;;;;;;6090699;23;20942;-68
2022/03/28 05:35:37;;;;;;;1.87;1.73;;;4.40;98.00;;;;;;6091253;23;20450;-69
2022/03/28 05:38:04;;;;;;;2.17;1.93;;;4.40;98.00;;;;;;6091240;23;20440;-69
2022/03/28 05:40:32;;;;;;;2.00;1.90;;;4.30;98.00;;;;;;6091614;23;20425;-68
2022/03/28 05:42:59;;;;;;;1.70;1.63;;;4.30;98.00;;;;;;6092246;23;20576;-70
2022/03/28 05:45:26;;;;;;;1.53;1.50;;;4.30;98.00;;;;;;6066786;23;20439;-68
2022/03/28 05:47:53;;;;;;;2.03;1.53;;;4.30;98.00;;;;;;6092501;23;20430;-68
2022/03/28 05:50:20;;;;;;;6.40;1.90;;;4.30;98.00;;;;;;6110352;23;20449;-68
2022/03/28 05:52:47;;;;;;;3.13;2.03;;;4.40;98.00;;;;;;6121805;23;20492;-68
2022/03/28 05:55:15;;;;;;;2.50;1.97;;;4.50;98.00;;;;;;6095720;23;20531;-68
2022/03/28 05:57:44;;;;;;;1.60;1.50;;;4.50;98.00;;;;;;6122086;23;20424;-69
2022/03/28 06:00:13;;;;;;;2.33;1.80;;;4.50;98.00;;;;;;6122427;23;20930;-67
2022/03/28 06:02:40;;;;;;;1.83;1.70;;;4.60;98.00;;;;;;6121809;23;20401;-68
2022/03/28 06:05:08;;;;;;;1.53;1.50;;;4.60;98.00;;;;;;6121834;23;20409;-68
2022/03/28 06:07:35;;;;;;;1.60;1.33;;;4.70;98.00;;;;;;6121148;23;20411;-68
2022/03/28 06:10:04;;;;;;;1.90;1.87;;;4.70;98.00;;;;;;6121764;23;20401;-68
2022/03/28 06:12:31;;;;;;;6.13;1.77;;;4.60;98.00;;;;;;6121678;23;20409;-68
2022/03/28 06:14:59;;;;;;;2.60;2.07;;;4.40;98.00;;;;;;6121146;23;20970;-68
2022/03/28 06:17:27;;;;;;;1.57;1.50;;;4.60;98.00;;;;;;6121533;23;20421;-69
2022/03/28 06:19:54;;;;;;;1.60;1.40;;;4.60;98.00;;;;;;6121574;23;20404;-68
2022/03/28 06:22:21;;;;;;;1.60;1.53;;;4.70;98.00;;;;;;6095887;23;20397;-68
2022/03/28 06:24:49;;;;;;;1.40;1.40;;;4.60;98.00;;;;;;6121611;23;20456;-68
2022/03/28 06:27:17;;;;;;;1.20;1.17;;;4.60;98.00;;;;;;6121543;23;20423;-69
2022/03/28 06:29:44;;;;;;;1.73;1.50;;;4.50;98.00;;;;;;6121820;23;20753;-68
2022/03/28 06:32:12;;;;;;;2.50;2.20;;;4.70;98.00;;;;;;6121485;23;20468;-69
2022/03/28 06:34:39;;;;;;;3.20;1.43;;;4.90;98.00;;;;;;6121560;23;20448;-68
2022/03/28 06:37:07;;;;;;;1.50;1.43;;;5.20;98.00;;;;;;6121250;23;20429;-69
2022/03/28 06:39:35;;;;;;;2.97;2.03;;;5.30;98.00;;;;;;6095561;23;20414;-69
2022/03/28 06:42:04;;;;;;;2.13;1.53;;;5.40;98.00;;;;;;6121098;23;20891;-68
2022/03/28 06:44:31;;;;;;;3.03;2.70;;;5.60;98.00;;;;;;6120904;23;20919;-69
2022/03/28 06:47:00;;;;;;;2.97;2.10;;;5.70;98.00;;;;;;6120700;23;20409;-69
2022/03/28 06:49:29;;;;;;;1.90;1.83;;;5.90;98.00;;;;;;6120560;23;20485;-69
2022/03/28 06:51:55;;;;;;;1.40;1.27;;;6.00;98.00;;;;;;6120756;23;20456;-70
2022/03/28 06:54:22;;;;;;;4.43;2.80;;;6.10;98.00;;;;;;6120386;23;20417;-70
2022/03/28 06:56:49;;;;;;;1.40;1.30;;;6.20;98.00;;;;;;6120602;23;20927;-70
2022/03/28 06:59:16;;;;;;;1.87;1.30;;;6.20;98.00;;;;;;6120641;23;20409;-69
2022/03/28 07:01:44;;;;;;;1.90;1.80;;;6.30;98.00;;;;;;6094861;23;20792;-68
2022/03/28 07:04:11;;;;;;;1.70;1.40;;;6.10;98.00;;;;;;6120662;23;20402;-68
2022/03/28 07:06:40;;;;;;;2.77;1.97;;;6.20;98.00;;;;;;6120446;23;20494;-68
2022/03/28 07:09:08;;;;;;;4.90;3.03;;;6.20;98.00;;;;;;6120623;23;20935;-69
2022/03/28 07:11:35;;;;;;;3.53;1.70;;;6.30;98.00;;;;;;6094794;23;20739;-69
2022/03/28 07:14:04;;;;;;;1.83;1.73;;;6.20;98.00;;;;;;6120558;23;20402;-68
2022/03/28 07:16:31;;;;;;;3.23;1.87;;;6.20;98.00;;;;;;6120076;23;21002;-68
2022/03/28 07:18:58;;;;;;;1.60;1.50;;;6.30;98.00;;;;;;6094815;23;20796;-69
2022/03/28 07:21:25;;;;;;;2.10;1.70;;;6.40;98.00;;;;;;6120410;23;20466;-68
2022/03/28 07:23:54;;;;;;;4.77;2.10;;;6.60;98.00;;;;;;6120437;23;20485;-68
2022/03/28 07:26:22;;;;;;;1.37;1.20;;;6.80;98.00;;;;;;6120151;23;20458;-68
2022/03/28 07:28:49;;;;;;;1.50;1.40;;;7.10;98.00;;;;;;6120544;23;20659;-68
2022/03/28 07:31:17;;;;;;;5.07;2.90;;;7.40;98.00;;;;;;6120360;23;20424;-69
2022/03/28 07:33:45;;;;;;;4.20;3.97;;;7.50;98.00;;;;;;6118044;23;20420;-69
2022/03/28 07:36:12;;;;;;;2.10;1.80;;;7.70;98.00;;;;;;6119297;23;20432;-68
2022/03/28 07:38:39;;;;;;;1.20;1.10;;;7.80;98.00;;;;;;6119137;23;20409;-69
2022/03/28 07:41:08;;;;;;;2.10;1.63;;;8.10;98.00;;;;;;6119614;23;21012;-68
2022/03/28 07:43:35;;;;;;;1.40;1.30;;;8.20;98.00;;;;;;6119599;23;20421;-70
2022/03/28 07:46:02;;;;;;;2.00;1.80;;;8.40;98.00;;;;;;6119480;23;20416;-70
2022/03/28 07:48:29;;;;;;;2.43;1.90;;;8.50;98.00;;;;;;6119088;23;20465;-70
2022/03/28 07:50:57;;;;;;;2.30;1.93;;;8.50;98.00;;;;;;6119441;23;20425;-70
2022/03/28 07:53:28;;;;;;;1.73;1.63;;;8.80;98.00;;;;;;6119269;23;20444;-69
2022/03/28 07:55:55;;;;;;;1.20;1.20;;;9.00;98.00;;;;;;6093303;23;20445;-69
2022/03/28 07:58:29;;;;;;;3.03;2.27;;;9.20;98.00;;;;;;6119317;23;20413;-70
2022/03/28 08:00:56;;;;;;;2.63;2.03;;;9.40;98.00;;;;;;6119702;23;20457;-69
2022/03/28 08:03:24;;;;;;;3.83;3.10;;;9.60;98.00;;;;;;6118242;23;20813;-70
2022/03/28 08:05:53;;;;;;;1.67;1.63;;;9.70;98.00;;;;;;6118663;23;20437;-70
2022/03/28 08:08:20;;;;;;;1.93;1.60;;;9.90;98.00;;;;;;6119317;23;20409;-69
2022/03/28 08:10:47;;;;;;;3.17;2.33;;;10.10;98.00;;;;;;6119075;23;20446;-70
2022/03/28 08:13:14;;;;;;;1.73;1.57;;;10.40;98.00;;;;;;6118561;23;20475;-70
2022/03/28 08:15:43;;;;;;;2.17;1.73;;;10.60;98.00;;;;;;6118975;23;20492;-70
2022/03/28 08:18:10;;;;;;;3.40;2.30;;;10.70;97.70;;;;;;6118994;23;20414;-70
2022/03/28 08:20:38;;;;;;;2.33;1.70;;;10.90;96.90;;;;;;6118877;23;20401;-70
2022/03/28 08:23:06;;;;;;;4.17;2.10;;;10.90;96.90;;;;;;6118648;23;20445;-71
2022/03/28 08:25:34;;;;;;;2.43;1.50;;;11.10;95.60;;;;;;6093617;23;20400;-70
2022/03/28 08:28:02;;;;;;;5.00;2.27;;;11.20;94.50;;;;;;6118909;23;20888;-71
2022/03/28 08:30:29;;;;;;;2.47;1.80;;;11.30;94.20;;;;;;6119156;23;20468;-70
2022/03/28 08:32:57;;;;;;;2.50;2.20;;;11.50;94.50;;;;;;6119029;23;20771;-70
2022/03/28 08:35:27;;;;;;;1.80;1.70;;;11.80;92.50;;;;;;6119732;23;20462;-70
2022/03/28 08:37:54;;;;;;;2.90;2.10;;;11.80;92.10;;;;;;6119031;23;20496;-70
2022/03/28 08:40:21;;;;;;;4.33;3.20;;;12.00;93.30;;;;;;6119375;23;20399;-70
2022/03/28 08:42:49;;;;;;;4.60;2.40;;;12.30;91.90;;;;;;6118782;23;20402;-70
2022/03/28 08:45:16;;;;;;;3.73;2.27;;;12.40;92.50;;;;;;6118959;23;20436;-70
2022/03/28 08:47:45;;;;;;;3.17;2.23;;;12.60;91.60;;;;;;6119021;23;20436;-70
2022/03/28 08:50:15;;;;;;;2.97;2.47;;;12.80;89.70;;;;;;6118838;23;20458;-70
2022/03/28 08:52:44;;;;;;;1.80;1.23;;;13.00;90.50;;;;;;6118553;23;20478;-70
2022/03/28 08:55:12;;;;;;;2.10;1.97;;;13.20;88.90;;;;;;6118707;23;20538;-70
2022/03/28 08:57:40;;;;;;;2.00;1.53;;;13.30;89.00;;;;;;6118766;23;20408;-70
2022/03/28 09:00:10;;;;;;;2.43;1.93;;;13.60;87.60;;;;;;6118055;23;20428;-69
2022/03/28 09:02:42;;;;;;;4.77;2.67;;;13.80;88.30;;;;;;6118379;23;20421;-70
2022/03/28 09:05:10;;;;;;;2.50;1.83;;;14.00;89.50;;;;;;6118649;23;20417;-69
2022/03/28 09:07:39;;;;;;;3.10;2.50;;;14.30;87.20;;;;;;6119055;23;20622;-70
2022/03/28 09:10:08;;;;;;;4.03;3.00;;;14.80;87.20;;;;;;6118953;23;20406;-70
2022/03/28 09:12:40;;;;;;;4.87;3.33;;;15.20;83.80;;;;;;6118519;23;20405;-72
2022/03/28 09:15:13;;;;;;;3.10;2.00;;;15.20;82.50;;;;;;6118511;23;20446;-72
2022/03/28 09:17:41;;;;;;;2.83;2.33;;;15.30;82.10;;;;;;6120013;23;20740;-72
2022/03/28 09:20:09;;;;;;;3.37;2.53;;;15.40;82.70;;;;;;6119998;23;20437;-72
2022/03/28 09:22:41;;;;;;;4.13;2.70;;;15.50;80.90;;;;;;6094289;23;20828;-73
2022/03/28 09:25:12;;;;;;;4.97;2.83;;;15.70;81.40;;;;;;6119519;23;20437;-72
2022/03/28 09:27:44;;;;;;;5.13;2.87;;;15.80;81.10;;;;;;6120051;23;20770;-71
2022/03/28 09:30:12;;;;;;;3.87;2.20;;;16.00;81.00;;;;;;6120148;23;20402;-70
2022/03/28 09:32:41;;;;;;;3.43;2.77;;;16.10;80.50;;;;;;6119501;23;20969;-71
2022/03/28 09:35:20;;;;;;;3.30;2.47;;;16.40;80.30;;;;;;6119990;23;20447;-70
2022/03/28 09:38:01;;;;;;;2.60;1.73;;;16.60;80.60;;;;;;6119325;23;20401;-70
2022/03/28 09:40:49;;;;;;;3.63;2.47;;;16.80;79.60;;;;;;6119916;23;20397;-70
2022/03/28 09:43:19;;;;;;;2.53;2.13;;;17.10;79.80;;;;;;6119585;23;20397;-70
2022/03/28 09:45:49;;;;;;;3.70;2.50;;;17.30;78.50;;;;;;6119880;23;20451;-70
2022/03/28 09:48:19;;;;;;;3.73;2.50;;;17.40;77.90;;;;;;6120177;23;20730;-70
2022/03/28 09:50:48;;;;;;;3.97;2.10;;;17.70;76.70;;;;;;6119132;23;20425;-70
2022/03/28 09:53:22;;;;;;;3.37;2.23;;;17.90;75.80;;;;;;6119897;23;20463;-73
2022/03/28 09:55:55;;;;;;;3.70;2.57;;;18.00;73.80;;;;;;6119864;23;20805;-71
2022/03/28 09:58:42;;;;;;;5.20;3.20;;;18.20;72.40;;;;;;6120919;23;20405;-75
2022/03/28 10:01:16;;;;;;;4.20;2.40;;;18.40;71.30;;;;;;6120962;23;20440;-73
2022/03/28 10:03:46;;;;;;;3.33;2.33;;;18.60;71.70;;;;;;6121546;23;20429;-73
2022/03/28 10:06:13;;;;;;;8.93;2.33;;;18.70;70.40;;;;;;6120241;23;20852;-73
2022/03/28 10:08:41;;;;;;;4.67;2.30;;;18.90;70.60;;;;;;6120056;23;20405;-71
2022/03/28 10:11:10;;;;;;;5.90;3.37;;;19.00;68.50;;;;;;6119717;23;20467;-71
2022/03/28 10:13:37;;;;;;;6.83;3.43;;;19.20;68.10;;;;;;6119261;23;20423;-71
2022/03/28 10:16:16;;;;;;;4.03;2.87;;;19.40;68.70;;;;;;6119603;23;20441;-72
2022/03/28 10:18:45;;;;;;;6.90;2.97;;;19.60;67.60;;;;;;6119995;23;20405;-71
2022/03/28 10:21:20;;;;;;;3.30;2.40;;;19.80;68.00;;;;;;6119947;23;20398;-71
2022/03/28 10:23:53;;;;;;;6.93;2.97;;;19.90;63.80;;;;;;6119981;23;20432;-71
2022/03/28 10:26:28;;;;;;;21.07;3.60;;;19.90;64.50;;;;;;6119737;23;20436;-71
2022/03/28 10:29:06;;;;;;;6.87;3.03;;;20.20;63.80;;;;;;6120455;23;20404;-71
2022/03/28 10:31:34;;;;;;;3.90;2.77;;;20.40;65.10;;;;;;6119609;23;20433;-71
2022/03/28 10:34:03;;;;;;;4.10;3.10;;;20.50;64.80;;;;;;6119670;23;20793;-71
2022/03/28 10:36:32;;;;;;;6.80;4.30;;;20.70;64.30;;;;;;6119013;23;20484;-69
2022/03/28 10:39:37;;;;;;;4.37;2.87;;;20.80;63.70;;;;;;6119583;23;20411;-70
2022/03/28 10:42:19;;;;;;;3.70;2.23;;;21.10;63.90;;;;;;6119666;23;20496;-70
2022/03/28 10:44:58;;;;;;;3.17;2.40;;;21.30;62.60;;;;;;6119320;23;20451;-71
2022/03/28 10:47:41;;;;;;;6.07;3.03;;;21.40;64.50;;;;;;6119116;23;20429;-70
2022/03/28 10:50:10;;;;;;;4.30;3.20;;;21.60;62.90;;;;;;6118432;23;20425;-71
2022/03/28 10:52:37;;;;;;;7.90;4.67;;;21.70;63.30;;;;;;6119877;23;20641;-71
2022/03/28 10:55:10;;;;;;;4.07;2.70;;;21.80;62.50;;;;;;6094461;23;20739;-70
2022/03/28 10:57:44;;;;;;;4.83;3.17;;;21.90;61.30;;;;;;6119412;23;20445;-70
2022/03/28 11:00:12;;;;;;;4.87;2.33;;;22.00;60.70;;;;;;6119370;23;20402;-70
2022/03/28 11:02:39;;;;;;;7.90;3.63;;;22.10;61.40;;;;;;6119580;23;20432;-70
2022/03/28 11:05:08;;;;;;;10.07;3.53;;;22.20;61.30;;;;;;6119593;23;20413;-71
2022/03/28 11:07:35;;;;;;;7.00;3.77;;;22.40;60.30;;;;;;6119643;23;20402;-70
2022/03/28 11:10:06;;;;;;;6.17;3.00;;;22.50;59.90;;;;;;6119186;23;20413;-69
2022/03/28 11:12:37;;;;;;;8.17;3.67;;;22.70;62.30;;;;;;6119648;23;20451;-69
2022/03/28 11:15:13;;;;;;;3.57;2.47;;;22.90;61.60;;;;;;6119258;23;20448;-68
2022/03/28 11:17:54;;;;;;;7.20;3.30;;;23.00;61.80;;;;;;6119601;23;20439;-69
2022/03/28 11:20:23;;;;;;;6.57;3.00;;;23.20;60.50;;;;;;6119390;23;20463;-68
2022/03/28 11:22:54;;;;;;;7.87;3.07;;;23.40;59.70;;;;;;6119494;23;20441;-69
2022/03/28 11:25:52;;;;;;;5.33;3.37;;;23.50;59.50;;;;;;6119545;23;20451;-72
2022/03/28 11:28:26;;;;;;;6.23;2.80;;;23.70;56.20;;;;;;6118931;23;20398;-72
2022/03/28 11:31:05;;;;;;;4.77;2.90;;;23.80;57.80;;;;;;6119654;23;20402;-72
2022/03/28 11:33:35;;;;;;;3.60;2.70;;;24.10;56.50;;;;;;6119596;23;20413;-73
2022/03/28 11:36:04;;;;;;;7.67;3.13;;;24.10;54.30;;;;;;6120797;23;20689;-73
2022/03/28 11:38:34;;;;;;;7.07;3.47;;;24.30;57.70;;;;;;6119260;23;20406;-71
2022/03/28 11:41:02;;;;;;;5.23;2.77;;;24.50;56.60;;;;;;6120122;23;20900;-71
2022/03/28 11:43:35;;;;;;;9.37;4.00;;;24.60;54.40;;;;;;6120225;23;20456;-72
2022/03/28 11:46:03;;;;;;;8.20;4.37;;;24.50;53.90;;;;;;6120372;23;20397;-72
2022/03/28 11:48:30;;;;;;;7.33;3.53;;;24.70;53.80;;;;;;6120306;23;20429;-73
2022/03/28 11:50:57;;;;;;;7.30;3.27;;;24.90;53.50;;;;;;6120578;23;20807;-72
2022/03/28 11:53:25;;;;;;;6.67;3.50;;;24.90;52.00;;;;;;6120503;23;20417;-74
2022/03/28 11:55:54;;;;;;;8.57;4.07;;;25.00;51.70;;;;;;6120136;23;20475;-72
2022/03/28 11:58:29;;;;;;;7.37;2.80;;;25.20;53.80;;;;;;6120168;23;20437;-72
2022/03/28 12:01:09;;;;;;;6.97;3.20;;;25.50;50.70;;;;;;6120128;23;20420;-71
2022/03/28 12:03:38;;;;;;;5.40;3.03;;;25.70;49.90;;;;;;6120454;23;20780;-73
2022/03/28 12:06:06;;;;;;;9.17;3.57;;;25.70;51.50;;;;;;6120160;23;20475;-73
2022/03/28 12:08:33;;;;;;;7.57;3.57;;;25.80;50.80;;;;;;6120351;23;20912;-73
2022/03/28 12:11:00;;;;;;;9.83;3.20;;;25.80;50.00;;;;;;6120333;23;20417;-73
2022/03/28 12:13:27;;;;;;;6.10;3.33;;;25.90;50.40;;;;;;6120440;23;20443;-73
2022/03/28 12:15:55;;;;;;;5.80;3.33;;;25.80;50.70;;;;;;6119763;23;20453;-73
2022/03/28 12:18:29;;;;;;;8.43;4.00;;;25.80;50.00;;;;;;6120205;23;20421;-72
2022/03/28 12:20:56;;;;;;;6.53;4.30;;;25.70;49.50;;;;;;6120115;23;20884;-72
2022/03/28 12:23:28;;;;;;;6.60;3.60;;;25.70;49.00;;;;;;6119857;23;20896;-72
2022/03/28 12:26:00;;;;;;;8.63;3.80;;;25.80;49.60;;;;;;6120486;23;20404;-73
2022/03/28 12:28:29;;;;;;;11.30;4.07;;;25.90;51.40;;;;;;6120151;23;20486;-72
2022/03/28 12:30:58;;;;;;;7.57;3.40;;;26.20;50.70;;;;;;6120866;23;20731;-72
2022/03/28 12:33:27;;;;;;;6.40;3.77;;;26.20;49.40;;;;;;6104233;23;20430;-73
2022/03/28 12:36:01;;;;;;;7.10;3.60;;;26.20;48.20;;;;;;6120168;23;20406;-73
2022/03/28 12:38:30;;;;;;;8.00;4.33;;;26.10;50.00;;;;;;6119905;23;20444;-73
2022/03/28 12:41:00;;;;;;;6.37;3.50;;;26.30;47.90;;;;;;6120565;23;20402;-71
2022/03/28 12:43:28;;;;;;;7.20;3.83;;;26.40;48.50;;;;;;6119823;23;20408;-71
2022/03/28 12:45:57;;;;;;;9.77;3.73;;;26.60;49.30;;;;;;6119786;23;20749;-71
2022/03/28 12:48:36;;;;;;;5.33;3.17;;;26.70;48.70;;;;;;6119738;23;20413;-71
2022/03/28 12:51:05;;;;;;;9.17;4.50;;;26.70;47.20;;;;;;6129393;23;20467;-70
2022/03/28 12:53:32;;;;;;;9.27;4.10;;;26.80;48.40;;;;;;6120088;23;20876;-71
2022/03/28 12:56:15;;;;;;;9.07;3.97;;;26.80;47.60;;;;;;6119645;23;20405;-71
2022/03/28 12:58:44;;;;;;;4.90;3.10;;;26.90;49.80;;;;;;6120198;23;20779;-71
2022/03/28 13:01:11;;;;;;;9.50;3.67;;;27.10;49.20;;;;;;6120248;23;20467;-71